sensor_id;sensor_type;location;lat;lon;timestamp;pressure;altitude;pressure_sealevel;temperature;humidity
9676;BME280;4876;42.656;23.292;2023-02-28T00:01:05;94782.47;;;6.49;100.00
9676;BME280;4876;42.656;23.292;2023-02-28T00:03:31;94783.50;;;6.53;100.00
9676;BME280;4876;42.656;23.292;2023-02-28T00:06:00;94783.53;;;6.48;100.00
9676;BME280;4876;42.656;23.292;2023-02-28T00:08:27;94787.44;;;6.51;100.00
9676;BME280;4876;42.656;23.292;2023-02-28T00:10:56;94786.94;;;6.48;100.00
9676;BME280;4876;42.656;23.292;2023-02-28T00:13:23;94775.81;;;6.67;100.00
9676;BME280;4876;42.656;23.292;2023-02-28T00:15:59;94782.41;;;6.59;100.00
9676;BME280;4876;42.656;23.292;2023-02-28T00:18:26;94789.47;;;6.59;100.00
9676;BME280;4876;42.656;23.292;2023-02-28T00:20:53;94799.38;;;6.62;100.00
9676;BME280;4876;42.656;23.292;2023-02-28T00:23:20;94803.81;;;6.61;100.00
9676;BME280;4876;42.656;23.292;2023-02-28T00:25:47;94803.25;;;6.64;100.00
9676;BME280;4876;42.656;23.292;2023-02-28T00:28:16;94806.16;;;6.63;100.00
9676;BME280;4876;42.656;23.292;2023-02-28T00:30:43;94801.63;;;6.73;100.00
9676;BME280;4876;42.656;23.292;2023-02-28T00:33:10;94802.03;;;6.57;100.00
9676;BME280;4876;42.656;23.292;2023-02-28T00:35:38;94794.66;;;6.64;100.00
9676;BME280;4876;42.656;23.292;2023-02-28T00:38:04;94794.19;;;6.57;100.00
9676;BME280;4876;42.656;23.292;2023-02-28T00:40:32;94786.50;;;6.70;100.00
9676;BME280;4876;42.656;23.292;2023-02-28T00:42:58;94796.69;;;6.72;100.00
9676;BME280;4876;42.656;23.292;2023-02-28T00:45:26;94784.88;;;6.80;100.00
9676;BME280;4876;42.656;23.292;2023-02-28T00:47:53;94788.25;;;6.80;100.00
9676;BME280;4876;42.656;23.292;2023-02-28T00:50:20;94803.44;;;6.78;100.00
9676;BME280;4876;42.656;23.292;2023-02-28T00:52:48;94789.47;;;6.59;100.00
9676;BME280;4876;42.656;23.292;2023-02-28T00:55:15;94798.44;;;6.47;100.00
9676;BME280;4876;42.656;23.292;2023-02-28T00:57:42;94790.47;;;6.63;100.00
9676;BME280;4876;42.656;23.292;2023-02-28T01:00:10;94788.59;;;6.68;100.00
9676;BME280;4876;42.656;23.292;2023-02-28T01:02:38;94794.31;;;6.75;100.00
9676;BME280;4876;42.656;23.292;2023-02-28T01:05:06;94780.88;;;6.87;100.00
9676;BME280;4876;42.656;23.292;2023-02-28T01:07:33;94779.50;;;6.95;100.00
9676;BME280;4876;42.656;23.292;2023-02-28T01:09:59;94788.06;;;7.00;100.00
9676;BME280;4876;42.656;23.292;2023-02-28T01:12:26;94785.50;;;6.95;100.00
9676;BME280;4876;42.656;23.292;2023-02-28T01:14:53;94786.03;;;6.97;100.00
9676;BME280;4876;42.656;23.292;2023-02-28T01:17:20;94784.63;;;6.76;100.00
9676;BME280;4876;42.656;23.292;2023-02-28T01:19:48;94779.06;;;6.83;100.00
9676;BME280;4876;42.656;23.292;2023-02-28T01:22:15;94785.69;;;6.75;100.00
9676;BME280;4876;42.656;23.292;2023-02-28T01:24:41;94792.28;;;6.67;100.00
9676;BME280;4876;42.656;23.292;2023-02-28T01:27:08;94788.50;;;6.84;100.00
9676;BME280;4876;42.656;23.292;2023-02-28T01:29:35;94784.06;;;6.84;100.00
9676;BME280;4876;42.656;23.292;2023-02-28T01:32:02;94774.00;;;6.96;100.00
9676;BME280;4876;42.656;23.292;2023-02-28T01:34:28;94779.00;;;6.93;100.00
9676;BME280;4876;42.656;23.292;2023-02-28T01:36:57;94778.69;;;6.99;100.00
9676;BME280;4876;42.656;23.292;2023-02-28T01:39:24;94783.53;;;6.82;100.00
9676;BME280;4876;42.656;23.292;2023-02-28T01:41:51;94790.03;;;6.90;100.00
9676;BME280;4876;42.656;23.292;2023-02-28T01:47:26;94790.06;;;6.45;100.00
9676;BME280;4876;42.656;23.292;2023-02-28T01:49:53;94795.56;;;6.49;100.00
9676;BME280;4876;42.656;23.292;2023-02-28T01:52:22;94797.56;;;6.18;100.00
9676;BME280;4876;42.656;23.292;2023-02-28T01:54:52;94801.72;;;6.24;100.00
9676;BME280;4876;42.656;23.292;2023-02-28T01:57:24;94793.63;;;6.20;100.00
9676;BME280;4876;42.656;23.292;2023-02-28T01:59:55;94810.06;;;6.21;100.00
9676;BME280;4876;42.656;23.292;2023-02-28T02:02:25;94796.28;;;6.15;100.00
9676;BME280;4876;42.656;23.292;2023-02-28T02:04:55;94796.53;;;6.14;100.00
9676;BME280;4876;42.656;23.292;2023-02-28T02:07:26;94798.03;;;6.30;100.00
9676;BME280;4876;42.656;23.292;2023-02-28T02:10:00;94790.16;;;6.35;100.00
9676;BME280;4876;42.656;23.292;2023-02-28T02:12:36;94792.91;;;6.15;100.00
9676;BME280;4876;42.656;23.292;2023-02-28T02:15:11;94782.63;;;5.69;100.00
9676;BME280;4876;42.656;23.292;2023-02-28T02:17:44;94794.59;;;5.80;100.00
9676;BME280;4876;42.656;23.292;2023-02-28T02:35:43;94787.84;;;5.74;100.00
9676;BME280;4876;42.656;23.292;2023-02-28T02:38:20;94779.22;;;5.79;100.00
9676;BME280;4876;42.656;23.292;2023-02-28T02:41:05;94787.78;;;5.94;100.00
9676;BME280;4876;42.656;23.292;2023-02-28T02:43:37;94790.38;;;5.89;100.00
9676;BME280;4876;42.656;23.292;2023-02-28T02:46:08;94794.25;;;6.02;100.00
9676;BME280;4876;42.656;23.292;2023-02-28T02:48:38;94794.75;;;6.09;100.00
9676;BME280;4876;42.656;23.292;2023-02-28T02:51:12;94794.47;;;6.16;100.00
9676;BME280;4876;42.656;23.292;2023-02-28T02:53:43;94788.78;;;6.04;100.00
9676;BME280;4876;42.656;23.292;2023-02-28T02:56:15;94796.50;;;6.24;100.00
9676;BME280;4876;42.656;23.292;2023-02-28T02:58:47;94789.88;;;5.87;100.00
9676;BME280;4876;42.656;23.292;2023-02-28T03:01:19;94806.44;;;6.22;100.00
9676;BME280;4876;42.656;23.292;2023-02-28T03:03:55;94805.44;;;6.13;100.00
9676;BME280;4876;42.656;23.292;2023-02-28T03:06:24;94807.91;;;6.33;100.00
9676;BME280;4876;42.656;23.292;2023-02-28T03:08:51;94809.38;;;6.10;100.00
9676;BME280;4876;42.656;23.292;2023-02-28T03:11:18;94810.94;;;6.11;100.00
9676;BME280;4876;42.656;23.292;2023-02-28T03:14:04;94824.63;;;6.32;100.00
9676;BME280;4876;42.656;23.292;2023-02-28T03:16:39;94833.81;;;6.30;100.00
9676;BME280;4876;42.656;23.292;2023-02-28T03:19:23;94837.19;;;6.35;100.00
9676;BME280;4876;42.656;23.292;2023-02-28T03:22:05;94832.28;;;6.24;100.00
9676;BME280;4876;42.656;23.292;2023-02-28T03:24:43;94844.00;;;6.26;100.00
9676;BME280;4876;42.656;23.292;2023-02-28T03:27:16;94835.66;;;6.24;100.00
9676;BME280;4876;42.656;23.292;2023-02-28T03:29:50;94835.66;;;6.24;100.00
9676;BME280;4876;42.656;23.292;2023-02-28T03:32:25;94838.84;;;6.16;100.00
9676;BME280;4876;42.656;23.292;2023-02-28T03:34:56;94848.81;;;6.09;100.00
9676;BME280;4876;42.656;23.292;2023-02-28T03:37:28;94842.34;;;5.91;100.00
9676;BME280;4876;42.656;23.292;2023-02-28T03:39:59;94839.47;;;5.82;100.00
9676;BME280;4876;42.656;23.292;2023-02-28T03:42:29;94840.53;;;5.76;100.00
9676;BME280;4876;42.656;23.292;2023-02-28T03:45:00;94840.53;;;5.76;100.00
9676;BME280;4876;42.656;23.292;2023-02-28T03:47:32;94841.59;;;5.75;100.00
9676;BME280;4876;42.656;23.292;2023-02-28T03:50:06;94820.22;;;5.63;100.00
9676;BME280;4876;42.656;23.292;2023-02-28T03:52:39;94843.69;;;5.78;100.00
9676;BME280;4876;42.656;23.292;2023-02-28T03:55:11;94856.19;;;5.81;100.00
9676;BME280;4876;42.656;23.292;2023-02-28T03:57:42;94849.69;;;5.79;100.00
9676;BME280;4876;42.656;23.292;2023-02-28T04:00:14;94845.84;;;5.46;100.00
9676;BME280;4876;42.656;23.292;2023-02-28T04:02:44;94846.53;;;5.77;100.00
9676;BME280;4876;42.656;23.292;2023-02-28T04:05:11;94858.03;;;5.71;100.00
9676;BME280;4876;42.656;23.292;2023-02-28T04:07:39;94851.47;;;5.83;100.00
9676;BME280;4876;42.656;23.292;2023-02-28T04:10:06;94851.47;;;5.93;100.00
9676;BME280;4876;42.656;23.292;2023-02-28T04:12:33;94847.06;;;5.84;100.00
9676;BME280;4876;42.656;23.292;2023-02-28T04:15:00;94849.66;;;5.84;100.00
9676;BME280;4876;42.656;23.292;2023-02-28T04:17:27;94852.53;;;5.77;100.00
9676;BME280;4876;42.656;23.292;2023-02-28T04:19:54;94834.31;;;5.62;100.00
9676;BME280;4876;42.656;23.292;2023-02-28T04:22:22;94848.34;;;5.91;100.00
9676;BME280;4876;42.656;23.292;2023-02-28T04:24:53;94843.63;;;5.93;100.00
9676;BME280;4876;42.656;23.292;2023-02-28T04:27:20;94846.78;;;5.90;100.00
9676;BME280;4876;42.656;23.292;2023-02-28T04:29:47;94843.38;;;5.95;100.00
9676;BME280;4876;42.656;23.292;2023-02-28T04:32:14;94852.50;;;5.87;100.00
9676;BME280;4876;42.656;23.292;2023-02-28T04:34:40;94857.00;;;5.72;100.00
9676;BME280;4876;42.656;23.292;2023-02-28T04:37:07;94862.47;;;5.70;100.00
9676;BME280;4876;42.656;23.292;2023-02-28T04:39:35;94851.25;;;5.64;100.00
9676;BME280;4876;42.656;23.292;2023-02-28T04:42:04;94860.41;;;5.62;100.00
9676;BME280;4876;42.656;23.292;2023-02-28T04:44:31;94860.41;;;5.62;100.00
9676;BME280;4876;42.656;23.292;2023-02-28T04:46:58;94869.28;;;5.61;100.00
9676;BME280;4876;42.656;23.292;2023-02-28T04:49:24;94869.03;;;5.52;100.00
9676;BME280;4876;42.656;23.292;2023-02-28T04:51:51;94870.09;;;5.51;100.00
9676;BME280;4876;42.656;23.292;2023-02-28T04:54:19;94879.22;;;5.49;100.00
9676;BME280;4876;42.656;23.292;2023-02-28T04:56:45;94874.78;;;5.54;100.00
9676;BME280;4876;42.656;23.292;2023-02-28T04:59:16;94880.28;;;5.53;100.00
9676;BME280;4876;42.656;23.292;2023-02-28T05:01:46;94879.22;;;5.54;100.00
9676;BME280;4876;42.656;23.292;2023-02-28T05:04:13;94879.75;;;5.51;100.00
9676;BME280;4876;42.656;23.292;2023-02-28T05:06:39;94877.41;;;5.49;100.00
9676;BME280;4876;42.656;23.292;2023-02-28T05:09:06;94880.28;;;5.48;100.00
9676;BME280;4876;42.656;23.292;2023-02-28T05:11:34;94882.88;;;5.32;100.00
9676;BME280;4876;42.656;23.292;2023-02-28T05:14:01;94881.84;;;5.38;100.00
9676;BME280;4876;42.656;23.292;2023-02-28T05:16:29;94881.81;;;5.59;100.00
9676;BME280;4876;42.656;23.292;2023-02-28T05:18:56;94879.72;;;5.66;100.00
9676;BME280;4876;42.656;23.292;2023-02-28T05:21:26;94874.50;;;5.61;100.00
9676;BME280;4876;42.656;23.292;2023-02-28T05:23:54;94893.28;;;5.63;100.00
9676;BME280;4876;42.656;23.292;2023-02-28T05:26:22;94892.53;;;5.42;100.00
9676;BME280;4876;42.656;23.292;2023-02-28T05:28:48;94895.41;;;5.40;100.00
9676;BME280;4876;42.656;23.292;2023-02-28T05:31:15;94893.31;;;5.48;100.00
9676;BME280;4876;42.656;23.292;2023-02-28T05:33:43;94898.00;;;5.61;100.00
9676;BME280;4876;42.656;23.292;2023-02-28T05:36:10;94911.03;;;5.61;100.00
9676;BME280;4876;42.656;23.292;2023-02-28T05:38:37;94908.16;;;5.62;100.00
9676;BME280;4876;42.656;23.292;2023-02-28T05:41:07;94906.59;;;5.72;100.00
9676;BME280;4876;42.656;23.292;2023-02-28T05:43:35;94882.06;;;5.52;100.00
9676;BME280;4876;42.656;23.292;2023-02-28T05:46:03;94912.53;;;5.82;100.00
9676;BME280;4876;42.656;23.292;2023-02-28T05:48:31;94912.31;;;5.84;100.00
9676;BME280;4876;42.656;23.292;2023-02-28T05:50:59;94914.63;;;5.85;100.00
9676;BME280;4876;42.656;23.292;2023-02-28T05:53:26;94909.94;;;5.82;100.00
9676;BME280;4876;42.656;23.292;2023-02-28T05:55:52;94915.94;;;5.93;100.00
9676;BME280;4876;42.656;23.292;2023-02-28T05:58:20;94924.06;;;5.91;100.00
9676;BME280;4876;42.656;23.292;2023-02-28T06:00:46;94917.25;;;5.85;100.00
9676;BME280;4876;42.656;23.292;2023-02-28T06:03:13;94919.59;;;5.87;100.00
9676;BME280;4876;42.656;23.292;2023-02-28T06:05:40;94916.69;;;5.88;100.00
9676;BME280;4876;42.656;23.292;2023-02-28T06:08:11;94921.69;;;5.85;100.00
9676;BME280;4876;42.656;23.292;2023-02-28T06:10:39;94924.53;;;5.88;100.00
9676;BME280;4876;42.656;23.292;2023-02-28T06:13:06;94927.16;;;5.93;100.00
9676;BME280;4876;42.656;23.292;2023-02-28T06:15:33;94918.25;;;6.05;100.00
9676;BME280;4876;42.656;23.292;2023-02-28T06:18:00;94918.25;;;6.05;100.00
9676;BME280;4876;42.656;23.292;2023-02-28T06:20:27;94918.78;;;6.07;100.00
9676;BME280;4876;42.656;23.292;2023-02-28T06:22:55;94922.44;;;6.06;100.00
9676;BME280;4876;42.656;23.292;2023-02-28T06:25:25;94922.16;;;6.07;100.00
9676;BME280;4876;42.656;23.292;2023-02-28T06:27:52;94917.69;;;6.23;100.00
9676;BME280;4876;42.656;23.292;2023-02-28T06:30:19;94922.63;;;6.19;100.00
9676;BME280;4876;42.656;23.292;2023-02-28T06:32:52;94928.91;;;6.24;100.00
9676;BME280;4876;42.656;23.292;2023-02-28T06:35:19;94929.69;;;6.24;100.00
9676;BME280;4876;42.656;23.292;2023-02-28T06:37:46;94936.75;;;6.24;100.00
9676;BME280;4876;42.656;23.292;2023-02-28T06:40:14;94940.59;;;6.41;100.00
9676;BME280;4876;42.656;23.292;2023-02-28T06:42:42;94942.16;;;6.37;100.00
9676;BME280;4876;42.656;23.292;2023-02-28T06:45:10;94933.56;;;6.32;100.00
9676;BME280;4876;42.656;23.292;2023-02-28T06:47:37;94894.19;;;6.18;100.00
9676;BME280;4876;42.656;23.292;2023-02-28T06:50:06;94921.00;;;6.39;100.00
9676;BME280;4876;42.656;23.292;2023-02-28T06:52:33;94946.28;;;6.54;100.00
9676;BME280;4876;42.656;23.292;2023-02-28T06:55:03;94945.34;;;6.24;100.00
9676;BME280;4876;42.656;23.292;2023-02-28T06:57:31;94949.19;;;6.47;100.00
9676;BME280;4876;42.656;23.292;2023-02-28T07:00:03;94941.88;;;6.39;100.00
9676;BME280;4876;42.656;23.292;2023-02-28T07:02:31;94946.25;;;6.59;100.00
9676;BME280;4876;42.656;23.292;2023-02-28T07:04:58;94950.03;;;6.27;100.00
9676;BME280;4876;42.656;23.292;2023-02-28T07:07:25;94950.31;;;6.20;100.00
9676;BME280;4876;42.656;23.292;2023-02-28T07:09:51;94947.88;;;6.44;100.00
9676;BME280;4876;42.656;23.292;2023-02-28T07:12:18;94950.44;;;6.55;100.00
9676;BME280;4876;42.656;23.292;2023-02-28T07:14:45;94944.75;;;6.47;100.00
9676;BME280;4876;42.656;23.292;2023-02-28T07:17:13;94944.94;;;6.56;100.00
9676;BME280;4876;42.656;23.292;2023-02-28T07:19:40;94952.44;;;6.78;100.00
9676;BME280;4876;42.656;23.292;2023-02-28T07:22:07;94942.66;;;6.94;100.00
9676;BME280;4876;42.656;23.292;2023-02-28T07:24:33;94953.22;;;6.73;100.00
9676;BME280;4876;42.656;23.292;2023-02-28T07:27:00;94957.75;;;6.58;100.00
9676;BME280;4876;42.656;23.292;2023-02-28T07:29:27;94950.41;;;6.65;100.00
9676;BME280;4876;42.656;23.292;2023-02-28T07:31:54;94954.88;;;6.59;100.00
9676;BME280;4876;42.656;23.292;2023-02-28T07:34:23;94952.50;;;6.58;100.00
9676;BME280;4876;42.656;23.292;2023-02-28T07:36:52;94958.75;;;6.72;100.00
9676;BME280;4876;42.656;23.292;2023-02-28T07:39:20;94957.19;;;6.71;100.00
9676;BME280;4876;42.656;23.292;2023-02-28T07:41:47;94949.84;;;6.68;100.00
9676;BME280;4876;42.656;23.292;2023-02-28T07:44:13;94957.63;;;6.83;100.00
9676;BME280;4876;42.656;23.292;2023-02-28T07:46:40;94957.38;;;6.80;100.00
9676;BME280;4876;42.656;23.292;2023-02-28T07:49:07;94943.03;;;6.77;100.00
9676;BME280;4876;42.656;23.292;2023-02-28T07:51:35;94947.72;;;6.75;100.00
9676;BME280;4876;42.656;23.292;2023-02-28T07:54:02;94948.81;;;6.69;100.00
9676;BME280;4876;42.656;23.292;2023-02-28T07:56:29;94949.59;;;6.69;100.00
9676;BME280;4876;42.656;23.292;2023-02-28T07:58:56;94945.00;;;6.95;100.00
9676;BME280;4876;42.656;23.292;2023-02-28T08:01:23;94951.28;;;6.94;100.00
9676;BME280;4876;42.656;23.292;2023-02-28T08:03:49;94945.72;;;7.06;100.00
9676;BME280;4876;42.656;23.292;2023-02-28T08:06:18;94948.09;;;7.03;100.00
9676;BME280;4876;42.656;23.292;2023-02-28T08:08:47;94945.78;;;6.96;100.00
9676;BME280;4876;42.656;23.292;2023-02-28T08:11:15;94948.63;;;6.99;100.00
9676;BME280;4876;42.656;23.292;2023-02-28T08:13:42;94947.84;;;6.99;100.00
9676;BME280;4876;42.656;23.292;2023-02-28T08:16:10;94924.47;;;6.79;100.00
9676;BME280;4876;42.656;23.292;2023-02-28T08:18:39;94946.53;;;7.01;100.00
9676;BME280;4876;42.656;23.292;2023-02-28T08:21:07;94947.03;;;7.04;100.00
9676;BME280;4876;42.656;23.292;2023-02-28T08:23:34;94957.97;;;7.11;100.00
9676;BME280;4876;42.656;23.292;2023-02-28T08:26:02;94952.47;;;7.12;100.00
9676;BME280;4876;42.656;23.292;2023-02-28T08:28:29;94942.03;;;7.07;100.00
9676;BME280;4876;42.656;23.292;2023-02-28T08:30:59;94950.31;;;7.19;100.00
9676;BME280;4876;42.656;23.292;2023-02-28T08:33:27;94957.13;;;7.20;100.00
9676;BME280;4876;42.656;23.292;2023-02-28T08:35:54;94952.16;;;7.19;100.00
9676;BME280;4876;42.656;23.292;2023-02-28T08:38:21;94964.78;;;7.12;100.00
9676;BME280;4876;42.656;23.292;2023-02-28T08:40:48;94955.81;;;7.23;100.00
9676;BME280;4876;42.656;23.292;2023-02-28T08:43:16;94963.00;;;7.41;100.00
9676;BME280;4876;42.656;23.292;2023-02-28T08:45:43;94964.56;;;7.42;100.00
9676;BME280;4876;42.656;23.292;2023-02-28T08:48:10;94966.41;;;7.71;100.00
9676;BME280;4876;42.656;23.292;2023-02-28T08:50:36;94964.84;;;7.70;100.00
9676;BME280;4876;42.656;23.292;2023-02-28T08:53:03;94959.94;;;7.63;100.00
9676;BME280;4876;42.656;23.292;2023-02-28T08:55:30;94964.31;;;7.73;100.00
9676;BME280;4876;42.656;23.292;2023-02-28T08:57:57;94966.28;;;7.86;100.00
9676;BME280;4876;42.656;23.292;2023-02-28T09:00:26;94967.47;;;7.70;100.00
9676;BME280;4876;42.656;23.292;2023-02-28T09:02:53;94968.19;;;7.75;100.00
9676;BME280;4876;42.656;23.292;2023-02-28T09:05:20;94971.28;;;7.82;100.00
9676;BME280;4876;42.656;23.292;2023-02-28T09:07:46;94959.53;;;7.80;100.00
9676;BME280;4876;42.656;23.292;2023-02-28T09:10:13;94958.00;;;7.74;100.00
9676;BME280;4876;42.656;23.292;2023-02-28T09:12:40;94959.16;;;7.63;100.00
9676;BME280;4876;42.656;23.292;2023-02-28T09:15:07;94957.91;;;7.55;100.00
9676;BME280;4876;42.656;23.292;2023-02-28T09:17:36;94957.19;;;7.78;100.00
9676;BME280;4876;42.656;23.292;2023-02-28T09:20:03;94950.28;;;7.88;100.00
9676;BME280;4876;42.656;23.292;2023-02-28T09:22:30;94953.44;;;8.14;100.00
9676;BME280;4876;42.656;23.292;2023-02-28T09:24:57;94955.38;;;8.27;100.00
9676;BME280;4876;42.656;23.292;2023-02-28T09:27:24;94948.31;;;8.27;100.00
9676;BME280;4876;42.656;23.292;2023-02-28T09:29:51;94950.31;;;8.12;100.00
9676;BME280;4876;42.656;23.292;2023-02-28T09:32:18;94948.84;;;8.00;100.00
9676;BME280;4876;42.656;23.292;2023-02-28T09:34:46;94949.19;;;8.18;100.00
9676;BME280;4876;42.656;23.292;2023-02-28T09:37:13;94950.66;;;8.29;100.00
9676;BME280;4876;42.656;23.292;2023-02-28T09:39:39;94950.06;;;8.32;100.00
9676;BME280;4876;42.656;23.292;2023-02-28T09:42:17;94946.81;;;8.45;100.00
9676;BME280;4876;42.656;23.292;2023-02-28T09:44:46;94941.72;;;8.54;100.00
9676;BME280;4876;42.656;23.292;2023-02-28T09:47:21;94945.72;;;8.70;100.00
9676;BME280;4876;42.656;23.292;2023-02-28T09:49:53;94943.81;;;8.76;100.00
9676;BME280;4876;42.656;23.292;2023-02-28T09:52:26;94942.66;;;8.82;100.00
9676;BME280;4876;42.656;23.292;2023-02-28T09:54:55;94936.81;;;8.90;100.00
9676;BME280;4876;42.656;23.292;2023-02-28T09:57:32;94935.78;;;9.05;99.11
9676;BME280;4876;42.656;23.292;2023-02-28T10:00:05;94923.53;;;9.00;98.39
9676;BME280;4876;42.656;23.292;2023-02-28T10:02:48;94932.34;;;8.90;99.52
9676;BME280;4876;42.656;23.292;2023-02-28T10:05:20;94939.06;;;8.78;100.00
9676;BME280;4876;42.656;23.292;2023-02-28T10:07:56;94934.19;;;8.90;100.00
9676;BME280;4876;42.656;23.292;2023-02-28T10:10:29;94921.78;;;8.96;100.00
9676;BME280;4876;42.656;23.292;2023-02-28T10:13:00;94925.78;;;8.88;99.70
9676;BME280;4876;42.656;23.292;2023-02-28T10:15:31;94924.22;;;9.25;99.79
9676;BME280;4876;42.656;23.292;2023-02-28T10:18:01;94924.94;;;9.11;99.02
9676;BME280;4876;42.656;23.292;2023-02-28T10:20:33;94924.56;;;9.18;100.00
9676;BME280;4876;42.656;23.292;2023-02-28T10:23:04;94922.28;;;9.30;99.82
9676;BME280;4876;42.656;23.292;2023-02-28T10:25:36;94917.00;;;9.49;98.47
9676;BME280;4876;42.656;23.292;2023-02-28T10:28:10;94912.16;;;9.56;97.45
9676;BME280;4876;42.656;23.292;2023-02-28T10:30:39;94898.84;;;9.66;97.00
9676;BME280;4876;42.656;23.292;2023-02-28T10:33:17;94906.59;;;10.04;95.64
9676;BME280;4876;42.656;23.292;2023-02-28T10:35:46;94908.13;;;10.05;93.72
9676;BME280;4876;42.656;23.292;2023-02-28T10:38:16;94899.31;;;10.29;91.99
9676;BME280;4876;42.656;23.292;2023-02-28T10:40:43;94894.22;;;10.05;91.92
9676;BME280;4876;42.656;23.292;2023-02-28T10:43:20;94892.19;;;10.29;90.45
9676;BME280;4876;42.656;23.292;2023-02-28T10:45:59;94881.69;;;10.15;88.03
9676;BME280;4876;42.656;23.292;2023-02-28T10:48:38;94879.44;;;10.09;87.89
9676;BME280;4876;42.656;23.292;2023-02-28T10:51:10;94883.53;;;10.01;88.19
9676;BME280;4876;42.656;23.292;2023-02-28T10:53:45;94866.00;;;10.10;88.88
9676;BME280;4876;42.656;23.292;2023-02-28T10:56:16;94867.44;;;10.16;87.93
9676;BME280;4876;42.656;23.292;2023-02-28T10:59:02;94858.34;;;10.00;88.08
9676;BME280;4876;42.656;23.292;2023-02-28T11:01:38;94852.97;;;9.78;87.87
9676;BME280;4876;42.656;23.292;2023-02-28T11:04:17;94859.88;;;10.01;88.56
9676;BME280;4876;42.656;23.292;2023-02-28T11:06:46;94848.38;;;10.24;87.86
9676;BME280;4876;42.656;23.292;2023-02-28T11:09:25;94847.13;;;10.08;87.78
9676;BME280;4876;42.656;23.292;2023-02-28T11:11:54;94828.25;;;9.92;87.85
9676;BME280;4876;42.656;23.292;2023-02-28T11:14:23;94846.66;;;10.06;88.24
9676;BME280;4876;42.656;23.292;2023-02-28T11:16:52;94845.84;;;9.92;88.85
9676;BME280;4876;42.656;23.292;2023-02-28T11:19:22;94850.16;;;9.88;89.54
9676;BME280;4876;42.656;23.292;2023-02-28T11:21:55;94842.66;;;9.95;88.85
9676;BME280;4876;42.656;23.292;2023-02-28T11:24:27;94852.00;;;10.01;89.01
9676;BME280;4876;42.656;23.292;2023-02-28T11:26:55;94841.59;;;9.96;88.89
9676;BME280;4876;42.656;23.292;2023-02-28T11:29:24;94829.03;;;9.93;88.30
9676;BME280;4876;42.656;23.292;2023-02-28T11:32:09;94835.25;;;10.11;88.56
9676;BME280;4876;42.656;23.292;2023-02-28T11:34:39;94815.09;;;9.92;88.42
9676;BME280;4876;42.656;23.292;2023-02-28T11:37:11;94829.03;;;10.07;88.63
9676;BME280;4876;42.656;23.292;2023-02-28T11:39:39;94822.59;;;9.99;89.43
9676;BME280;4876;42.656;23.292;2023-02-28T11:42:29;94826.69;;;10.05;89.24
9676;BME280;4876;42.656;23.292;2023-02-28T11:45:07;94827.66;;;10.09;88.24
9676;BME280;4876;42.656;23.292;2023-02-28T11:47:43;94823.38;;;9.86;88.58
9676;BME280;4876;42.656;23.292;2023-02-28T11:50:23;94823.59;;;9.76;90.71
9676;BME280;4876;42.656;23.292;2023-02-28T11:52:56;94824.19;;;10.00;91.51
9676;BME280;4876;42.656;23.292;2023-02-28T11:55:26;94813.84;;;9.90;89.31
9676;BME280;4876;42.656;23.292;2023-02-28T11:58:14;94826.59;;;10.10;89.10
9676;BME280;4876;42.656;23.292;2023-02-28T12:00:59;94813.03;;;10.17;87.34
9676;BME280;4876;42.656;23.292;2023-02-28T12:03:39;94819.09;;;10.31;86.10
9676;BME280;4876;42.656;23.292;2023-02-28T12:06:18;94819.22;;;10.48;86.71
9676;BME280;4876;42.656;23.292;2023-02-28T12:09:00;94818.25;;;10.58;86.69
9676;BME280;4876;42.656;23.292;2023-02-28T12:11:36;94820.88;;;10.58;85.03
9676;BME280;4876;42.656;23.292;2023-02-28T12:14:25;94816.31;;;10.50;85.25
9676;BME280;4876;42.656;23.292;2023-02-28T12:17:03;94818.59;;;10.15;86.10
9676;BME280;4876;42.656;23.292;2023-02-28T12:19:44;94812.25;;;10.16;85.36
9676;BME280;4876;42.656;23.292;2023-02-28T12:22:28;94812.25;;;10.16;85.40
9676;BME280;4876;42.656;23.292;2023-02-28T12:27:57;94809.44;;;10.40;82.83
9676;BME280;4876;42.656;23.292;2023-02-28T12:30:26;94816.84;;;10.24;83.24
9676;BME280;4876;42.656;23.292;2023-02-28T12:32:56;94812.81;;;10.41;84.22
9676;BME280;4876;42.656;23.292;2023-02-28T12:35:27;94809.38;;;10.32;83.47
9676;BME280;4876;42.656;23.292;2023-02-28T12:38:03;94802.75;;;10.07;85.57
9676;BME280;4876;42.656;23.292;2023-02-28T12:40:38;94815.78;;;10.12;86.34
9676;BME280;4876;42.656;23.292;2023-02-28T12:43:09;94820.56;;;10.23;87.00
9676;BME280;4876;42.656;23.292;2023-02-28T12:45:43;94779.00;;;9.98;87.05
9676;BME280;4876;42.656;23.292;2023-02-28T12:48:15;94807.00;;;10.16;86.49
9676;BME280;4876;42.656;23.292;2023-02-28T12:50:45;94808.97;;;9.97;86.82
9676;BME280;4876;42.656;23.292;2023-02-28T12:53:17;94796.03;;;9.87;87.27
9676;BME280;4876;42.656;23.292;2023-02-28T12:55:48;94806.66;;;9.82;88.35
9676;BME280;4876;42.656;23.292;2023-02-28T12:58:25;94798.97;;;9.85;87.17
9676;BME280;4876;42.656;23.292;2023-02-28T13:01:14;94804.91;;;9.91;86.64
9676;BME280;4876;42.656;23.292;2023-02-28T13:04:11;94793.41;;;10.01;88.19
9676;BME280;4876;42.656;23.292;2023-02-28T13:06:55;94801.75;;;10.16;86.21
9676;BME280;4876;42.656;23.292;2023-02-28T13:09:26;94797.94;;;10.22;85.43
9676;BME280;4876;42.656;23.292;2023-02-28T13:11:55;94816.84;;;10.11;86.25
9676;BME280;4876;42.656;23.292;2023-02-28T13:14:26;94793.59;;;10.04;86.81
9676;BME280;4876;42.656;23.292;2023-02-28T13:17:01;94813.03;;;10.17;86.41
9676;BME280;4876;42.656;23.292;2023-02-28T13:19:31;94799.81;;;10.08;86.53
9676;BME280;4876;42.656;23.292;2023-02-28T13:21:59;94791.84;;;9.86;85.26
9676;BME280;4876;42.656;23.292;2023-02-28T13:24:42;94789.25;;;9.86;86.54
9676;BME280;4876;42.656;23.292;2023-02-28T13:27:37;94797.72;;;9.83;86.39
9676;BME280;4876;42.656;23.292;2023-02-28T13:33:27;94800.97;;;10.16;83.93
9676;BME280;4876;42.656;23.292;2023-02-28T13:36:26;94788.44;;;10.13;82.75
9676;BME280;4876;42.656;23.292;2023-02-28T13:38:55;94787.53;;;10.17;82.45
9676;BME280;4876;42.656;23.292;2023-02-28T13:41:45;94789.69;;;10.15;81.34
9676;BME280;4876;42.656;23.292;2023-02-28T13:44:13;94781.13;;;10.10;81.18
9676;BME280;4876;42.656;23.292;2023-02-28T13:49:53;94781.03;;;10.15;80.74
9676;BME280;4876;42.656;23.292;2023-02-28T13:52:22;94767.13;;;10.14;80.49
9676;BME280;4876;42.656;23.292;2023-02-28T13:55:16;94770.31;;;10.11;81.35
9676;BME280;4876;42.656;23.292;2023-02-28T13:57:57;94764.53;;;10.01;82.42